Ana Sayfa
METAR-TAF:

METAR-TAF

Havaalanları :

Mexicali, Meksika

Enlem: 32-37-50N, Boylam: 115-14-30W, yükseklik: 22 m

Güncel hava durumu gözlemi

Rapor saat 12:54 UTC de 1 saat ve 5 dakika önce yapıldı.
Sakin rüzgar
Sıcaklık 16°C
Nem 36%
Basınç 1008 hPa
Görüş mesafesi: 16.1 km
Açık gökyüzü

METAR: MMML 221254Z 00000KT 10SM SKC 16/01 A2978 RMK FULYR SW W RTS

Saat: 08:59 (13:59 UTC)

Tahmin

Rapor saat 05:28 UTC de 8 saat ve 31 dakika önce yapıldı.
Ayın 22'si saat 06 UTC'den ayın 23'si saat 06 UTC'ye kadar geçerli Tahmin
Rüzgar batıdan 5 kt
Görüş mesafesi: 10 km
Açık gökyüzü
Ayın 22'si saat 1500 UTC'den
Rüzgar batı/kuzeybatıdan 5 kt
Görüş mesafesi: 10 km
Açık gökyüzü
Ayın 23'si saat 0000 UTC'den
Rüzgar kuzeybatıdan 10 kt
Görüş mesafesi: 10 km
20000 ft yükseklikte parçalı bulutlu

TAF: MMML 220528Z 2206/2306 26005KT P6SM SKC FM221500 30005KT P6SM SKC FM230000 31010KT P6SM SCT200

4.000'den fazla havaalanı için hava durumu gözlemleri ve tahminleri (METAR ve TAF raporları).

Kullanılabilir istasyonlar harita üzerinde sarı ve kırmızı noktalarla gösterilir.

İstasyonun adını görmek için fareyi noktanın üzerinde gezdirin.

Sonrasında hava gözlem ve tahminlerini görmek için tıklayın.

Haritayı değiştirmek için: yaklaştırmak için siyah artı işaretli yeşil düğmeye ve uzaklaştırmak için de eksi işaretli düğmeye hızla tıklayın; bitişik haritalar için yeşil okları kullanın.


METAR-TAF: